createdAt,value
2019-03-17T00:01:57.575Z,99239.16
2019-03-17T00:04:31.773Z,99238.77
2019-03-17T00:07:05.510Z,99230.11
2019-03-17T00:09:37.880Z,99226.69
2019-03-17T00:12:10.509Z,99221.02
2019-03-17T00:14:43.063Z,99221.15
2019-03-17T00:17:16.477Z,99216.39
2019-03-17T00:19:48.899Z,99222.84
2019-03-17T00:22:21.378Z,99212.50
2019-03-17T00:24:54.728Z,99211.20
2019-03-17T00:27:27.185Z,99210.70
2019-03-17T00:29:59.720Z,99211.92
2019-03-17T00:32:32.198Z,99202.83
2019-03-17T00:35:03.468Z,99198.11
2019-03-17T00:37:37.171Z,99204.60
2019-03-17T00:40:09.849Z,99194.21
2019-03-17T00:42:42.568Z,99195.33
2019-03-17T00:45:15.148Z,99190.13
2019-03-17T00:47:47.622Z,99191.43
2019-03-17T00:50:20.088Z,99191.43
2019-03-17T00:52:52.493Z,99191.43
2019-03-17T00:55:25.398Z,99193.12
2019-03-17T00:57:59.620Z,99186.57
2019-03-17T01:00:32.296Z,99187.72
2019-03-17T01:03:04.969Z,99186.91
2019-03-17T01:05:37.488Z,99186.91
2019-03-17T01:08:09.908Z,99174.83
2019-03-17T01:10:42.409Z,99172.56
2019-03-17T01:13:14.760Z,99162.08
2019-03-17T01:15:47.242Z,99157.08
2019-03-17T01:18:19.529Z,99152.58
2019-03-17T01:20:51.997Z,99161.59
2019-03-17T01:23:24.688Z,99159.85
2019-03-17T01:25:58.595Z,99159.47
2019-03-17T01:28:31.017Z,99157.30
2019-03-17T01:31:03.430Z,99161.25
2019-03-17T01:33:35.748Z,99156.63
2019-03-17T01:36:08.262Z,99160.81
2019-03-17T01:38:40.648Z,99156.97
2019-03-17T01:41:13.028Z,99159.08
2019-03-17T01:43:45.528Z,99146.00
2019-03-17T01:46:18.078Z,99153.30
2019-03-17T01:48:50.436Z,99148.16
2019-03-17T01:51:21.566Z,99148.11
2019-03-17T01:53:53.771Z,99145.66
2019-03-17T01:56:26.340Z,99140.02
2019-03-17T01:58:58.648Z,99133.75
2019-03-17T02:01:31.047Z,99135.55
2019-03-17T02:04:03.570Z,99131.27
2019-03-17T02:06:35.837Z,99124.19
2019-03-17T02:09:08.186Z,99117.53
2019-03-17T02:11:40.468Z,99121.28
2019-03-17T02:14:13.298Z,99122.59
2019-03-17T02:19:23.319Z,99115.01
2019-03-17T02:21:55.507Z,99124.69
2019-03-17T02:24:26.826Z,99132.93
2019-03-17T02:26:59.208Z,99128.20
2019-03-17T02:29:31.748Z,99116.89
2019-03-17T02:32:04.098Z,99120.73
2019-03-17T02:34:36.373Z,99115.92
2019-03-17T02:37:07.866Z,99113.66
2019-03-17T02:39:39.969Z,99121.07
2019-03-17T02:42:13.137Z,99113.91
2019-03-17T02:44:45.660Z,99120.27
2019-03-17T02:47:17.847Z,99121.56
2019-03-17T02:49:50.623Z,99128.98
2019-03-17T02:52:23.221Z,99132.44
2019-03-17T02:54:55.528Z,99126.27
2019-03-17T02:57:27.974Z,99116.70
2019-03-17T03:00:00.813Z,99119.63
2019-03-17T03:02:33.652Z,99113.02
2019-03-17T03:05:06.745Z,99121.15
2019-03-17T03:07:39.303Z,99122.98
2019-03-17T03:10:11.822Z,99119.91
2019-03-17T03:12:44.158Z,99118.99
2019-03-17T03:15:15.377Z,99116.86
2019-03-17T03:17:47.474Z,99120.44
2019-03-17T03:20:19.890Z,99116.53
2019-03-17T03:22:52.438Z,99119.13
2019-03-17T03:25:24.768Z,99118.61
2019-03-17T03:27:57.228Z,99119.36
2019-03-17T03:30:29.742Z,99112.85
2019-03-17T03:33:02.430Z,99106.69
2019-03-17T03:35:34.922Z,99093.08
2019-03-17T03:38:07.322Z,99109.34
2019-03-17T03:40:39.767Z,99104.58
2019-03-17T03:43:12.257Z,99099.33
2019-03-17T03:45:44.637Z,99100.57
2019-03-17T03:48:17.104Z,99098.73
2019-03-17T03:50:49.527Z,99103.44
2019-03-17T03:53:21.974Z,99097.22
2019-03-17T03:55:54.688Z,99101.89
2019-03-17T03:58:27.097Z,99096.24
2019-03-17T04:00:59.489Z,99093.97
2019-03-17T04:03:31.928Z,99094.24
2019-03-17T04:06:04.258Z,99093.27
2019-03-17T04:08:35.451Z,99093.59
2019-03-17T04:11:08.040Z,99097.30
2019-03-17T04:13:40.451Z,99098.16
2019-03-17T04:16:12.849Z,99101.91
2019-03-17T04:18:45.202Z,99102.66
2019-03-17T04:21:17.757Z,99092.57
2019-03-17T04:23:50.154Z,99095.44
2019-03-17T04:26:22.719Z,99095.38
2019-03-17T04:28:55.229Z,99091.90
2019-03-17T04:31:27.478Z,99096.13
2019-03-17T04:33:59.998Z,99096.45
2019-03-17T04:36:39.951Z,99103.34
2019-03-17T04:39:07.999Z,99103.40
2019-03-17T04:41:40.509Z,99098.58
2019-03-17T04:44:20.949Z,99090.70
2019-03-17T04:46:47.047Z,99094.05
2019-03-17T04:49:19.548Z,99093.08
2019-03-17T04:51:51.878Z,99095.84
2019-03-17T04:54:24.297Z,99098.71
2019-03-17T04:56:56.707Z,99092.47
2019-03-17T04:59:29.078Z,99098.53
2019-03-17T05:02:01.807Z,99098.91
2019-03-17T05:04:34.289Z,99101.56
2019-03-17T05:07:06.678Z,99100.34
2019-03-17T05:09:39.017Z,99100.83
2019-03-17T05:12:13.157Z,99098.16
2019-03-17T05:14:44.445Z,99094.19
2019-03-17T05:17:16.741Z,99087.99
2019-03-17T05:19:49.237Z,99087.87
2019-03-17T05:22:22.297Z,99089.80
2019-03-17T05:24:54.717Z,99094.31
2019-03-17T05:27:27.168Z,99088.05
2019-03-17T05:29:59.645Z,99088.88
2019-03-17T05:32:32.154Z,99095.79
2019-03-17T05:35:04.776Z,99085.23
2019-03-17T05:37:37.127Z,99097.08
2019-03-17T05:40:09.667Z,99092.33
2019-03-17T05:42:42.166Z,99086.67
2019-03-17T05:45:14.628Z,99089.46
2019-03-17T05:47:47.107Z,99086.62
2019-03-17T05:50:19.525Z,99085.11
2019-03-17T05:52:52.145Z,99089.95
2019-03-17T05:55:24.425Z,99099.63
2019-03-17T05:57:57.315Z,99102.17
2019-03-17T06:00:29.780Z,99101.55
2019-03-17T06:03:02.454Z,99105.64
2019-03-17T06:05:34.747Z,99105.47
2019-03-17T06:08:07.197Z,99105.71
2019-03-17T06:10:39.485Z,99108.94
2019-03-17T06:13:12.771Z,99112.58
2019-03-17T06:15:45.127Z,99110.09
2019-03-17T06:18:17.977Z,99105.52
2019-03-17T06:20:50.456Z,99106.52
2019-03-17T06:23:21.665Z,99099.66
2019-03-17T06:25:53.863Z,99099.75
2019-03-17T06:28:26.490Z,99099.50
2019-03-17T06:30:59.058Z,99099.69
2019-03-17T06:33:31.675Z,99107.99
2019-03-17T06:36:04.107Z,99106.05
2019-03-17T06:38:36.585Z,99107.21
2019-03-17T06:41:12.075Z,99107.41
2019-03-17T06:43:44.621Z,99107.41
2019-03-17T06:46:16.998Z,99108.13
2019-03-17T06:48:49.568Z,99115.88
2019-03-17T06:51:22.112Z,99105.25
2019-03-17T06:53:56.568Z,99113.02
2019-03-17T06:56:29.137Z,99114.33
2019-03-17T06:59:00.505Z,99116.08
2019-03-17T07:01:32.707Z,99106.11
2019-03-17T07:04:05.196Z,99107.87
2019-03-17T07:06:37.666Z,99102.86
2019-03-17T07:09:10.144Z,99091.25
2019-03-17T07:11:42.457Z,99090.39
2019-03-17T07:14:15.067Z,99087.55
2019-03-17T07:16:48.615Z,99091.44
2019-03-17T07:19:21.156Z,99085.50
2019-03-17T07:21:53.544Z,99085.67
2019-03-17T07:24:26.057Z,99083.05
2019-03-17T07:26:58.528Z,99085.53
2019-03-17T07:29:32.019Z,99095.22
2019-03-17T07:32:04.562Z,99091.57
2019-03-17T07:34:37.435Z,99081.99
2019-03-17T07:37:09.895Z,99076.66
2019-03-17T07:39:42.476Z,99073.55
2019-03-17T07:42:14.995Z,99072.75
2019-03-17T07:44:47.494Z,99063.39
2019-03-17T07:47:20.795Z,99066.88
2019-03-17T07:49:53.155Z,99061.04
2019-03-17T07:52:25.636Z,99056.27
2019-03-17T07:54:58.614Z,99055.84
2019-03-17T07:57:31.395Z,99056.02
2019-03-17T08:00:03.924Z,99052.64
2019-03-17T08:02:36.477Z,99049.58
2019-03-17T08:05:09.237Z,99049.96
2019-03-17T08:07:41.867Z,99049.51
2019-03-17T08:10:14.717Z,99058.27
2019-03-17T08:12:47.835Z,99050.22
2019-03-17T08:15:20.648Z,99047.38
2019-03-17T08:17:53.048Z,99047.81
2019-03-17T08:20:25.794Z,99051.98
2019-03-17T08:22:58.360Z,99040.91
2019-03-17T08:25:31.055Z,99038.91
2019-03-17T08:28:03.526Z,99036.22
2019-03-17T08:30:36.347Z,99032.55
2019-03-17T08:33:08.895Z,99036.31
2019-03-17T08:35:41.396Z,99033.70
2019-03-17T08:38:21.930Z,99030.33
2019-03-17T08:40:48.365Z,99032.45
2019-03-17T08:43:20.782Z,99032.25
2019-03-17T08:45:53.456Z,99028.40
2019-03-17T08:48:25.945Z,99032.13
2019-03-17T08:50:58.775Z,99033.05
2019-03-17T08:53:31.226Z,99036.55
2019-03-17T08:56:04.135Z,99033.94
2019-03-17T08:58:36.768Z,99031.18
2019-03-17T09:01:12.077Z,99035.13
2019-03-17T09:03:49.237Z,99033.55
2019-03-17T09:06:22.456Z,99027.33
2019-03-17T09:08:54.954Z,99024.22
2019-03-17T09:11:27.337Z,99018.29
2019-03-17T09:13:59.855Z,99025.42
2019-03-17T09:16:32.987Z,99015.83
2019-03-17T09:19:05.657Z,99014.63
2019-03-17T09:21:40.568Z,99011.64
2019-03-17T09:24:26.338Z,99001.51
2019-03-17T09:27:04.410Z,99004.11
2019-03-17T09:29:37.037Z,99000.44
2019-03-17T09:32:11.755Z,98997.43
2019-03-17T09:34:44.267Z,98994.11
2019-03-17T09:37:27.744Z,98989.39
2019-03-17T09:40:13.146Z,98989.31
2019-03-17T09:42:46.523Z,98980.83
2019-03-17T09:45:45.835Z,98980.22
2019-03-17T09:48:22.687Z,98975.73
2019-03-17T09:51:04.147Z,98967.21
2019-03-17T09:53:40.422Z,98973.72
2019-03-17T09:56:13.057Z,98967.55
2019-03-17T09:58:49.926Z,98978.50
2019-03-17T10:01:22.637Z,98984.34
2019-03-17T10:07:04.255Z,98976.36
2019-03-17T10:09:44.056Z,98959.15
2019-03-17T10:12:16.585Z,98956.05
2019-03-17T10:15:36.106Z,98953.85
2019-03-17T10:21:44.697Z,98941.69
2019-03-17T10:24:17.387Z,98938.85
2019-03-17T10:26:49.869Z,98945.55
2019-03-17T10:29:22.827Z,98935.81
2019-03-17T10:31:55.327Z,98931.89
2019-03-17T10:34:27.677Z,98924.37
2019-03-17T10:37:00.315Z,98926.26
2019-03-17T10:39:32.779Z,98917.30
2019-03-17T10:42:06.676Z,98914.16
2019-03-17T10:44:40.118Z,98920.06
2019-03-17T10:47:17.945Z,98911.05
2019-03-17T10:49:53.175Z,98916.93
2019-03-17T10:55:55.694Z,98912.26
2019-03-17T10:58:22.021Z,98902.66
2019-03-17T11:04:19.286Z,98899.06
2019-03-17T11:06:55.927Z,98897.48
2019-03-17T11:09:31.045Z,98897.95
2019-03-17T11:12:20.309Z,98897.73
2019-03-17T11:18:41.362Z,98884.50
2019-03-17T11:21:32.408Z,98886.50
2019-03-17T11:24:07.476Z,98884.08
2019-03-17T11:26:45.127Z,98884.59
2019-03-17T11:30:12.694Z,98879.73
2019-03-17T11:33:43.956Z,98883.64
2019-03-17T11:39:43.987Z,98869.67
2019-03-17T11:42:23.257Z,98857.95
2019-03-17T11:48:56.556Z,98861.55
2019-03-17T11:51:50.596Z,98874.89
2019-03-17T11:54:36.139Z,98864.03
2019-03-17T12:01:40.333Z,98868.70
2019-03-17T12:04:31.696Z,98860.20
2019-03-17T12:07:04.129Z,98851.33
2019-03-17T12:09:36.475Z,98857.69
2019-03-17T12:12:09.197Z,98843.31
2019-03-17T12:14:46.540Z,98844.40
2019-03-17T12:17:22.173Z,98841.64
2019-03-17T12:20:27.502Z,98840.22
2019-03-17T12:29:42.395Z,98832.22
2019-03-17T12:33:18.237Z,98825.03
2019-03-17T12:39:47.041Z,98819.75
2019-03-17T12:46:47.080Z,98812.48
2019-03-17T12:54:15.315Z,98806.44
2019-03-17T13:12:27.866Z,98783.28
2019-03-17T13:26:06.876Z,98770.46
2019-03-17T13:39:05.025Z,98776.69
2019-03-17T13:41:37.761Z,98773.91
2019-03-17T13:44:10.475Z,98767.75
2019-03-17T13:47:44.987Z,98760.94
2019-03-17T14:09:52.642Z,98744.52
2019-03-17T14:49:15.056Z,98713.36
2019-03-17T14:56:08.789Z,98702.89
2019-03-17T14:58:25.540Z,98699.02
2019-03-17T15:00:58.157Z,98706.27
2019-03-17T15:03:30.752Z,98707.57
2019-03-17T15:06:03.309Z,98712.20
2019-03-17T15:08:36.807Z,98713.45
2019-03-17T15:12:04.996Z,98714.69
2019-03-17T15:14:54.371Z,98708.58
2019-03-17T15:17:30.737Z,98686.84
2019-03-17T15:20:05.877Z,98712.70
2019-03-17T15:31:05.661Z,98700.95
2019-03-17T15:33:31.054Z,98722.38
2019-03-17T15:36:06.084Z,98721.92
2019-03-17T15:40:13.886Z,98724.09
2019-03-17T15:45:15.813Z,98711.21
2019-03-17T15:55:14.738Z,98727.43
2019-03-17T16:01:27.734Z,98730.02
2019-03-17T16:07:44.684Z,98708.90
2019-03-17T16:11:30.163Z,98712.98
2019-03-17T16:14:22.608Z,98734.58
2019-03-17T16:17:41.345Z,98731.79
2019-03-17T16:20:22.047Z,98719.89
2019-03-17T16:30:00.709Z,98729.48
2019-03-17T16:33:01.460Z,98723.58
2019-03-17T16:39:27.320Z,98707.32
2019-03-17T16:42:00.047Z,98707.25
2019-03-17T16:44:34.937Z,98713.39
2019-03-17T16:47:26.821Z,98721.86
2019-03-17T16:50:38.036Z,98735.19
2019-03-17T16:54:03.795Z,98737.66
2019-03-17T17:02:44.046Z,98742.55
2019-03-17T17:09:45.914Z,98740.49
2019-03-17T17:11:35.514Z,98739.77
2019-03-17T17:14:27.914Z,98737.64
2019-03-17T17:17:07.905Z,98737.09
2019-03-17T17:19:40.727Z,98733.98
2019-03-17T17:22:28.205Z,98732.31
2019-03-17T17:25:14.925Z,98733.03
2019-03-17T17:28:12.074Z,98731.11
2019-03-17T17:34:31.548Z,98742.24
2019-03-17T17:43:36.721Z,98741.66
2019-03-17T17:46:32.602Z,98744.88
2019-03-17T17:49:05.196Z,98749.43
2019-03-17T17:51:43.616Z,98762.94
2019-03-17T17:54:17.683Z,98767.73
2019-03-17T17:56:50.054Z,98775.98
2019-03-17T17:59:22.678Z,98770.97
2019-03-17T18:01:57.525Z,98771.41
2019-03-17T18:04:30.165Z,98772.87
2019-03-17T18:07:03.355Z,98774.13
2019-03-17T18:09:35.903Z,98778.78
2019-03-17T18:12:20.331Z,98776.37
2019-03-17T18:14:51.997Z,98776.62
2019-03-17T18:17:25.994Z,98777.44
2019-03-17T18:19:58.455Z,98766.59
2019-03-17T18:22:30.264Z,98777.11
2019-03-17T18:25:03.974Z,98769.90
2019-03-17T18:27:38.225Z,98764.50
2019-03-17T18:30:13.325Z,98775.55
2019-03-17T18:32:47.051Z,98774.75
2019-03-17T18:35:19.491Z,98760.95
2019-03-17T18:40:48.645Z,98761.72
2019-03-17T18:43:21.415Z,98767.14
2019-03-17T18:46:11.542Z,98767.14
2019-03-17T18:48:45.635Z,98766.16
2019-03-17T18:51:25.305Z,98778.69
2019-03-17T18:53:58.398Z,98772.53
2019-03-17T19:00:15.516Z,98776.80
2019-03-17T19:02:48.475Z,98773.61
2019-03-17T19:08:30.503Z,98792.51
2019-03-17T19:11:04.988Z,98789.00
2019-03-17T19:13:39.045Z,98800.16
2019-03-17T19:16:11.615Z,98799.98
2019-03-17T19:18:44.561Z,98799.72
2019-03-17T19:21:17.075Z,98798.27
2019-03-17T19:23:49.705Z,98792.77
2019-03-17T19:26:22.107Z,98795.81
2019-03-17T19:29:00.926Z,98803.72
2019-03-17T19:31:33.394Z,98802.11
2019-03-17T19:34:06.035Z,98798.95
2019-03-17T19:36:48.705Z,98797.08
2019-03-17T19:39:21.624Z,98792.52
2019-03-17T19:41:54.547Z,98793.75
2019-03-17T19:44:27.025Z,98787.59
2019-03-17T19:46:59.535Z,98784.56
2019-03-17T19:49:32.090Z,98782.12
2019-03-17T19:52:04.845Z,98776.31
2019-03-17T19:54:37.408Z,98769.53
2019-03-17T19:57:10.395Z,98771.80
2019-03-17T19:59:42.899Z,98774.47
2019-03-17T20:02:15.844Z,98771.95
2019-03-17T20:04:48.394Z,98770.73
2019-03-17T20:07:20.835Z,98773.55
2019-03-17T20:09:53.395Z,98772.83
2019-03-17T20:15:43.706Z,98781.17
2019-03-17T20:18:19.065Z,98786.02
2019-03-17T20:27:53.123Z,98780.91
2019-03-17T20:30:29.728Z,98774.46
2019-03-17T20:33:02.265Z,98781.83
2019-03-17T20:35:34.635Z,98788.02
2019-03-17T20:38:07.225Z,98787.77
2019-03-17T20:40:43.776Z,98788.25
2019-03-17T20:43:34.300Z,98777.19
2019-03-17T20:45:54.885Z,98785.94
2019-03-17T20:48:27.473Z,98783.59
2019-03-17T20:51:00.095Z,98779.08
2019-03-17T20:53:32.686Z,98781.13
2019-03-17T20:56:06.275Z,98782.83
2019-03-17T20:58:41.465Z,98788.55
2019-03-17T21:01:18.265Z,98783.22
2019-03-17T21:03:50.945Z,98787.14
2019-03-17T21:06:23.406Z,98784.92
2019-03-17T21:08:54.686Z,98792.95
2019-03-17T21:11:26.979Z,98789.22
2019-03-17T21:14:00.835Z,98791.10
2019-03-17T21:16:33.347Z,98792.22
2019-03-17T21:19:05.825Z,98791.39
2019-03-17T21:21:40.185Z,98793.23
2019-03-17T21:24:13.555Z,98788.11
2019-03-17T21:26:47.005Z,98786.52
2019-03-17T21:29:21.068Z,98787.16
2019-03-17T21:31:53.555Z,98786.03
2019-03-17T21:34:27.665Z,98788.11
2019-03-17T21:37:22.830Z,98790.25
2019-03-17T21:43:58.600Z,98757.06
2019-03-17T21:46:31.105Z,98776.70
2019-03-17T21:52:29.334Z,98771.73
2019-03-17T21:55:04.984Z,98767.27
2019-03-17T21:57:56.626Z,98777.73
2019-03-17T22:07:04.544Z,98798.00
2019-03-17T22:12:26.697Z,98786.50
2019-03-17T22:15:08.044Z,98784.18
2019-03-17T22:17:49.992Z,98782.30
2019-03-17T22:24:58.463Z,98779.11
2019-03-17T22:27:46.604Z,98776.50
2019-03-17T22:31:14.683Z,98770.51
2019-03-17T22:33:52.924Z,98765.45
2019-03-17T22:36:25.433Z,98759.67
2019-03-17T22:39:04.496Z,98769.20
2019-03-17T22:42:47.093Z,98786.23
2019-03-17T22:49:07.042Z,98832.69
2019-03-17T22:51:42.737Z,98836.41
2019-03-17T22:58:04.876Z,98863.63
2019-03-17T23:00:41.674Z,98869.17
2019-03-17T23:03:15.825Z,98881.84
2019-03-17T23:05:48.428Z,98892.42
2019-03-17T23:08:21.025Z,98897.58
2019-03-17T23:10:54.031Z,98920.28
2019-03-17T23:13:31.465Z,98929.61
2019-03-17T23:16:33.716Z,98945.80
2019-03-17T23:19:42.335Z,98967.01
2019-03-17T23:22:22.675Z,98971.67
2019-03-17T23:25:33.589Z,98979.37
2019-03-17T23:28:53.253Z,98982.40
2019-03-17T23:32:06.715Z,98984.16
2019-03-17T23:42:16.763Z,99017.66
2019-03-17T23:48:47.455Z,99046.33
2019-03-17T23:51:21.585Z,99050.81
2019-03-17T23:53:54.038Z,99062.50
2019-03-17T23:56:26.567Z,99058.99
2019-03-17T23:58:59.245Z,99066.56
